Time;durP1;ratioP1;P1;durP2;ratioP2;P2;SDS_P1;SDS_P2;PMS_P1;PMS_P2;Temp;Humidity;BMP_temperature;BMP_pressure;BME280_temperature;BME280_humidity;BME280_pressure;Samples;Min_cycle;Max_cycle;Signal;HPM_P1;HPM_P2
2023/10/31 00:00:22;;;;;;;0.30;0.30;;;;;;;;;;6279895;22;20030;-91
2023/10/31 00:10:44;;;;;;;0.30;0.30;;;;;;;;;;6332545;22;20015;-93
2023/10/31 00:13:21;;;;;;;0.35;0.35;;;;;;;;;;6297831;22;20074;-92
2023/10/31 00:23:43;;;;;;;0.20;0.20;;;;;;;;;;6261945;22;20015;-95
2023/10/31 00:29:03;;;;;;;0.30;0.30;;;;;;;;;;6329613;22;20051;-93
2023/10/31 00:31:29;;;;;;;0.20;0.20;;;;;;;;;;6278836;22;20030;-93
2023/10/31 00:33:57;;;;;;;0.40;0.40;;;;;;;;;;6278026;22;20019;-93
2023/10/31 00:36:23;;;;;;;0.20;0.20;;;;;;;;;;6278194;22;20019;-93
2023/10/31 00:38:49;;;;;;;0.30;0.30;;;;;;;;;;6276847;22;20063;-93
2023/10/31 01:09:49;;;;;;;0.20;0.20;;;;;;;;;;6260140;22;20075;-94
2023/10/31 01:12:18;;;;;;;0.20;0.20;;;;;;;;;;6223455;22;20026;-93
2023/10/31 01:14:45;;;;;;;0.20;0.20;;;;;;;;;;6229996;23;20016;-93
2023/10/31 01:17:11;;;;;;;0.20;0.20;;;;;;;;;;6214381;23;20024;-90
2023/10/31 01:19:38;;;;;;;0.32;0.32;;;;;;;;;;6213693;23;20097;-92
2023/10/31 01:22:04;;;;;;;0.25;0.25;;;;;;;;;;6214836;23;20023;-93
2023/10/31 01:24:30;;;;;;;0.30;0.30;;;;;;;;;;6215362;23;20012;-93
2023/10/31 01:26:56;;;;;;;0.30;0.30;;;;;;;;;;6214907;23;20027;-95
2023/10/31 01:29:22;;;;;;;0.30;0.30;;;;;;;;;;6215226;23;20051;-94
2023/10/31 01:31:48;;;;;;;0.30;0.30;;;;;;;;;;6219281;23;20267;-94
2023/10/31 01:34:14;;;;;;;0.30;0.30;;;;;;;;;;6216051;23;20024;-93
2023/10/31 01:36:40;;;;;;;0.30;0.30;;;;;;;;;;6213835;23;20066;-94
2023/10/31 01:39:07;;;;;;;0.30;0.30;;;;;;;;;;6215625;23;20019;-95
2023/10/31 01:54:52;;;;;;;0.20;0.20;;;;;;;;;;6328282;22;20034;-93
2023/10/31 01:57:21;;;;;;;0.35;0.35;;;;;;;;;;6275853;22;20091;-94
2023/10/31 01:59:47;;;;;;;0.20;0.20;;;;;;;;;;6276370;22;20225;-95
2023/10/31 02:12:38;;;;;;;0.30;0.30;;;;;;;;;;6306000;22;20045;-94
2023/10/31 02:20:16;;;;;;;0.30;0.30;;;;;;;;;;6260856;22;20526;-92
2023/10/31 02:22:41;;;;;;;0.20;0.20;;;;;;;;;;6299963;22;20067;-94
2023/10/31 02:25:30;;;;;;;0.30;0.30;;;;;;;;;;6301359;22;20015;-94
2023/10/31 02:38:35;;;;;;;0.25;0.25;;;;;;;;;;6329523;22;20023;-86
2023/10/31 02:41:23;;;;;;;0.20;0.20;;;;;;;;;;6340925;22;20117;-86
2023/10/31 02:44:03;;;;;;;0.30;0.30;;;;;;;;;;6304618;22;20026;-86
2023/10/31 02:46:33;;;;;;;0.20;0.20;;;;;;;;;;6292942;22;20025;-87
2023/10/31 02:48:59;;;;;;;0.30;0.30;;;;;;;;;;6259724;22;20065;-87
2023/10/31 02:51:30;;;;;;;0.20;0.20;;;;;;;;;;6264906;22;20454;-87
2023/10/31 02:53:56;;;;;;;0.20;0.20;;;;;;;;;;6261498;22;20015;-85
2023/10/31 02:56:23;;;;;;;0.25;0.25;;;;;;;;;;6266289;22;20477;-86
2023/10/31 02:58:49;;;;;;;0.30;0.30;;;;;;;;;;6285443;22;20012;-84
2023/10/31 03:01:19;;;;;;;0.20;0.20;;;;;;;;;;6262181;22;20045;-85
2023/10/31 03:03:48;;;;;;;0.30;0.30;;;;;;;;;;6279211;22;20015;-87
2023/10/31 03:06:14;;;;;;;0.40;0.40;;;;;;;;;;6279747;22;20073;-86
2023/10/31 03:08:41;;;;;;;0.30;0.30;;;;;;;;;;6267731;22;20452;-87
2023/10/31 03:11:07;;;;;;;0.25;0.25;;;;;;;;;;6277771;22;20015;-85
2023/10/31 03:13:33;;;;;;;0.30;0.30;;;;;;;;;;6273402;22;20015;-84
2023/10/31 03:16:00;;;;;;;0.30;0.30;;;;;;;;;;6291816;22;20037;-88
2023/10/31 03:18:30;;;;;;;0.30;0.30;;;;;;;;;;6330973;22;19995;-85
2023/10/31 03:21:02;;;;;;;0.25;0.25;;;;;;;;;;6280996;22;20015;-86
2023/10/31 03:23:31;;;;;;;;;;;;;;;;;;6283378;22;20015;-86
2023/10/31 03:25:58;;;;;;;0.20;0.20;;;;;;;;;;6331187;22;19915;-88
2023/10/31 03:28:25;;;;;;;0.22;0.22;;;;;;;;;;6265641;22;20019;-86
2023/10/31 03:30:57;;;;;;;0.30;0.30;;;;;;;;;;6267940;22;20026;-87
2023/10/31 03:33:25;;;;;;;0.30;0.30;;;;;;;;;;6296279;22;20055;-86
2023/10/31 03:35:56;;;;;;;0.30;0.30;;;;;;;;;;6282250;22;20019;-86
2023/10/31 03:38:28;;;;;;;0.40;0.40;;;;;;;;;;6283145;22;20019;-86
2023/10/31 03:41:01;;;;;;;0.30;0.30;;;;;;;;;;6332197;22;20021;-87
2023/10/31 03:43:28;;;;;;;0.20;0.20;;;;;;;;;;6308191;22;20027;-86
2023/10/31 03:45:55;;;;;;;0.28;0.28;;;;;;;;;;6324082;22;20026;-86
2023/10/31 03:48:21;;;;;;;0.30;0.30;;;;;;;;;;6314668;22;20350;-85
2023/10/31 03:50:47;;;;;;;0.30;0.30;;;;;;;;;;6264577;22;20015;-86
2023/10/31 03:53:15;;;;;;;0.40;0.40;;;;;;;;;;6306368;22;20016;-87
2023/10/31 03:56:00;;;;;;;0.20;0.20;;;;;;;;;;6328692;22;20098;-88
2023/10/31 03:58:26;;;;;;;0.22;0.22;;;;;;;;;;6289495;22;20480;-87
2023/10/31 04:00:52;;;;;;;0.30;0.30;;;;;;;;;;6317343;22;20015;-87
2023/10/31 04:03:23;;;;;;;0.30;0.30;;;;;;;;;;6301368;22;20022;-86
2023/10/31 04:05:54;;;;;;;0.30;0.30;;;;;;;;;;6308272;22;20034;-86
2023/10/31 04:08:21;;;;;;;0.20;0.20;;;;;;;;;;6323389;22;20011;-86
2023/10/31 04:10:49;;;;;;;0.30;0.30;;;;;;;;;;6298226;22;20067;-86
2023/10/31 04:13:17;;;;;;;0.30;0.30;;;;;;;;;;6333679;22;20018;-86
2023/10/31 04:15:44;;;;;;;0.40;0.40;;;;;;;;;;6306496;22;20077;-88
2023/10/31 04:18:29;;;;;;;0.30;0.30;;;;;;;;;;6346238;22;20051;-86
2023/10/31 04:21:00;;;;;;;0.30;0.30;;;;;;;;;;6334476;22;20021;-85
2023/10/31 04:23:45;;;;;;;0.30;0.30;;;;;;;;;;6235373;23;20012;-86
2023/10/31 04:26:44;;;;;;;0.30;0.30;;;;;;;;;;6319908;22;19999;-86
2023/10/31 04:29:15;;;;;;;0.40;0.40;;;;;;;;;;6240135;22;20446;-87
2023/10/31 04:31:41;;;;;;;0.30;0.30;;;;;;;;;;6301070;22;20010;-87
2023/10/31 04:34:07;;;;;;;0.30;0.30;;;;;;;;;;6319463;22;20038;-87
2023/10/31 04:36:34;;;;;;;0.30;0.30;;;;;;;;;;6295089;22;20019;-84
2023/10/31 04:39:00;;;;;;;0.22;0.22;;;;;;;;;;6292776;22;20015;-86
2023/10/31 04:41:26;;;;;;;0.30;0.30;;;;;;;;;;6293151;22;20011;-86
2023/10/31 04:43:52;;;;;;;0.30;0.30;;;;;;;;;;6293698;22;20066;-86
2023/10/31 04:46:22;;;;;;;0.20;0.20;;;;;;;;;;6324641;22;20023;-87
2023/10/31 04:48:49;;;;;;;0.20;0.20;;;;;;;;;;6335560;22;20043;-87
2023/10/31 04:51:21;;;;;;;0.20;0.20;;;;;;;;;;6324092;22;20022;-88
2023/10/31 04:53:50;;;;;;;0.30;0.30;;;;;;;;;;6303234;22;20015;-86
2023/10/31 04:56:17;;;;;;;0.30;0.30;;;;;;;;;;6308455;22;19999;-86
2023/10/31 04:58:45;;;;;;;0.30;0.30;;;;;;;;;;6335119;22;20045;-88
2023/10/31 05:01:20;;;;;;;0.38;0.38;;;;;;;;;;6308175;22;20000;-86
2023/10/31 05:03:49;;;;;;;0.30;0.30;;;;;;;;;;6270137;22;20073;-88
2023/10/31 05:06:20;;;;;;;0.38;0.38;;;;;;;;;;6298211;22;20080;-87
2023/10/31 05:08:48;;;;;;;0.40;0.40;;;;;;;;;;6308269;22;20006;-87
2023/10/31 05:11:18;;;;;;;0.30;0.30;;;;;;;;;;6330184;22;20064;-87
2023/10/31 05:13:53;;;;;;;0.30;0.30;;;;;;;;;;6323079;22;20019;-87
2023/10/31 05:16:31;;;;;;;0.30;0.30;;;;;;;;;;6296882;22;20446;-86
2023/10/31 05:19:04;;;;;;;0.20;0.20;;;;;;;;;;6307969;22;20020;-86
2023/10/31 05:21:30;;;;;;;0.30;0.30;;;;;;;;;;6292836;22;20026;-87
2023/10/31 05:23:56;;;;;;;0.40;0.40;;;;;;;;;;6265453;22;20015;-87
2023/10/31 05:26:22;;;;;;;0.30;0.30;;;;;;;;;;6267199;22;20022;-88
2023/10/31 05:28:48;;;;;;;0.30;0.30;;;;;;;;;;6265172;22;20022;-85
2023/10/31 05:31:17;;;;;;;0.20;0.20;;;;;;;;;;6271771;22;20038;-88
2023/10/31 05:33:54;;;;;;;;;;;;;;;;;;;;;
2023/10/31 05:36:27;;;;;;;0.30;0.30;;;;;;;;;;6327588;22;20024;-86
2023/10/31 05:38:53;;;;;;;0.20;0.20;;;;;;;;;;6263220;22;20015;-86
2023/10/31 05:41:19;;;;;;;0.20;0.20;;;;;;;;;;6288122;22;20011;-87
2023/10/31 05:43:45;;;;;;;0.20;0.20;;;;;;;;;;6262387;22;20015;-87
2023/10/31 05:46:16;;;;;;;0.30;0.30;;;;;;;;;;6267463;22;20029;-87
2023/10/31 05:48:46;;;;;;;0.30;0.30;;;;;;;;;;6297010;22;20015;-87
2023/10/31 05:51:16;;;;;;;0.30;0.30;;;;;;;;;;6261889;22;20031;-88
2023/10/31 05:53:43;;;;;;;0.20;0.20;;;;;;;;;;6237307;22;20015;-87
2023/10/31 05:56:10;;;;;;;0.30;0.30;;;;;;;;;;6263766;22;20071;-87
2023/10/31 05:58:37;;;;;;;0.20;0.20;;;;;;;;;;6261352;22;20050;-87
2023/10/31 06:01:07;;;;;;;0.30;0.30;;;;;;;;;;6264790;22;20022;-86
2023/10/31 06:03:39;;;;;;;0.30;0.30;;;;;;;;;;6269413;22;19995;-88
2023/10/31 06:06:08;;;;;;;0.30;0.30;;;;;;;;;;6269146;22;20019;-87
2023/10/31 06:08:34;;;;;;;0.28;0.28;;;;;;;;;;6287987;22;20050;-88
2023/10/31 06:11:02;;;;;;;0.30;0.30;;;;;;;;;;6262385;22;20188;-86
2023/10/31 06:13:29;;;;;;;0.30;0.30;;;;;;;;;;6261151;22;20015;-87
2023/10/31 06:15:55;;;;;;;0.30;0.30;;;;;;;;;;6273526;22;20066;-87
2023/10/31 06:18:21;;;;;;;0.22;0.22;;;;;;;;;;6261201;22;20016;-88
2023/10/31 06:20:48;;;;;;;0.30;0.30;;;;;;;;;;6263434;22;20011;-87
2023/10/31 06:23:16;;;;;;;0.30;0.30;;;;;;;;;;6288822;22;20015;-85
2023/10/31 06:25:48;;;;;;;0.20;0.20;;;;;;;;;;6299031;22;20015;-86
2023/10/31 06:28:18;;;;;;;0.30;0.30;;;;;;;;;;6281290;22;20038;-86
2023/10/31 06:30:49;;;;;;;0.30;0.30;;;;;;;;;;6305099;22;20015;-86
2023/10/31 06:33:28;;;;;;;0.30;0.30;;;;;;;;;;6334005;22;20090;-85
2023/10/31 06:36:02;;;;;;;0.30;0.30;;;;;;;;;;6307210;22;20059;-86
2023/10/31 06:38:48;;;;;;;0.30;0.30;;;;;;;;;;6310043;22;20010;-84
2023/10/31 06:41:14;;;;;;;0.30;0.30;;;;;;;;;;6268690;22;20342;-86
2023/10/31 06:43:44;;;;;;;0.20;0.20;;;;;;;;;;6277701;22;20050;-85
2023/10/31 06:46:30;;;;;;;0.30;0.30;;;;;;;;;;6298223;22;20052;-85
2023/10/31 06:48:57;;;;;;;0.25;0.25;;;;;;;;;;6263866;22;20011;-86
2023/10/31 06:51:32;;;;;;;0.30;0.30;;;;;;;;;;6274346;22;20015;-86
2023/10/31 06:54:22;;;;;;;0.30;0.30;;;;;;;;;;6267288;22;20015;-86
2023/10/31 06:56:48;;;;;;;0.30;0.30;;;;;;;;;;6276260;22;20049;-87
2023/10/31 06:59:34;;;;;;;0.30;0.30;;;;;;;;;;6328566;22;20042;-85
2023/10/31 07:02:03;;;;;;;0.30;0.30;;;;;;;;;;6305322;22;20038;-85
2023/10/31 07:04:33;;;;;;;0.30;0.30;;;;;;;;;;6279763;22;20042;-86
2023/10/31 07:06:59;;;;;;;0.30;0.30;;;;;;;;;;6299050;22;20058;-87
2023/10/31 07:09:35;;;;;;;0.30;0.30;;;;;;;;;;6278845;22;20004;-85
2023/10/31 07:12:04;;;;;;;0.30;0.30;;;;;;;;;;6301714;22;20011;-86
2023/10/31 07:14:30;;;;;;;0.20;0.20;;;;;;;;;;6299276;22;20068;-87
2023/10/31 07:16:58;;;;;;;0.30;0.30;;;;;;;;;;6274490;22;20019;-86
2023/10/31 07:19:32;;;;;;;0.30;0.30;;;;;;;;;;6280192;22;20012;-87
2023/10/31 07:22:08;;;;;;;0.30;0.30;;;;;;;;;;6304417;22;20011;-86
2023/10/31 07:24:40;;;;;;;0.38;0.38;;;;;;;;;;6330501;22;20011;-87
2023/10/31 07:27:10;;;;;;;0.20;0.20;;;;;;;;;;6323185;22;20019;-86
2023/10/31 07:29:46;;;;;;;0.30;0.30;;;;;;;;;;6321166;22;20058;-86
2023/10/31 07:32:12;;;;;;;0.30;0.30;;;;;;;;;;6297568;22;20019;-86
2023/10/31 07:34:45;;;;;;;0.20;0.20;;;;;;;;;;6298026;22;20015;-85
2023/10/31 07:37:12;;;;;;;0.30;0.30;;;;;;;;;;6301454;22;20019;-87
2023/10/31 07:39:42;;;;;;;0.30;0.30;;;;;;;;;;6301809;22;20026;-88
2023/10/31 07:42:11;;;;;;;0.20;0.20;;;;;;;;;;6293844;22;20069;-86
2023/10/31 07:44:37;;;;;;;0.30;0.30;;;;;;;;;;6299628;22;20358;-87
2023/10/31 07:47:03;;;;;;;0.38;0.38;;;;;;;;;;6298489;22;20015;-87
2023/10/31 07:49:29;;;;;;;0.30;0.30;;;;;;;;;;6294630;22;20022;-91
2023/10/31 07:51:57;;;;;;;0.20;0.20;;;;;;;;;;6305758;22;20019;-87
2023/10/31 07:54:24;;;;;;;0.28;0.28;;;;;;;;;;6330689;22;20019;-83
2023/10/31 07:57:17;;;;;;;0.28;0.28;;;;;;;;;;6329520;22;20031;-85
2023/10/31 07:59:57;;;;;;;0.32;0.32;;;;;;;;;;6322330;22;20037;-85
2023/10/31 08:02:36;;;;;;;0.20;0.20;;;;;;;;;;6299327;22;20004;-82
2023/10/31 08:05:02;;;;;;;0.20;0.20;;;;;;;;;;6320047;22;20015;-84
2023/10/31 08:07:31;;;;;;;0.30;0.30;;;;;;;;;;6298157;22;20026;-86
2023/10/31 08:10:20;;;;;;;0.30;0.30;;;;;;;;;;6339895;22;20018;-85
2023/10/31 08:12:46;;;;;;;0.20;0.20;;;;;;;;;;6298231;22;20043;-84
2023/10/31 08:15:13;;;;;;;0.25;0.25;;;;;;;;;;6299805;22;20019;-85
2023/10/31 08:17:50;;;;;;;0.30;0.30;;;;;;;;;;6324687;22;20015;-85
2023/10/31 08:20:21;;;;;;;0.20;0.20;;;;;;;;;;6278447;22;20393;-85
2023/10/31 08:23:07;;;;;;;0.38;0.38;;;;;;;;;;6295328;22;20011;-82
2023/10/31 08:25:41;;;;;;;0.40;0.40;;;;;;;;;;6299411;22;20018;-85
2023/10/31 08:28:13;;;;;;;0.25;0.25;;;;;;;;;;6325466;22;20015;-87
2023/10/31 08:30:39;;;;;;;0.30;0.30;;;;;;;;;;6297311;22;20047;-86
2023/10/31 08:33:21;;;;;;;0.20;0.20;;;;;;;;;;6333440;22;20011;-86
2023/10/31 08:35:49;;;;;;;0.30;0.30;;;;;;;;;;6323277;22;20017;-86
2023/10/31 08:38:18;;;;;;;0.30;0.30;;;;;;;;;;6306048;22;20016;-85
2023/10/31 08:41:11;;;;;;;0.30;0.30;;;;;;;;;;6329373;22;20014;-86
2023/10/31 08:43:43;;;;;;;0.30;0.30;;;;;;;;;;6320146;22;20059;-85
2023/10/31 08:46:24;;;;;;;0.20;0.20;;;;;;;;;;6293570;22;20018;-85
2023/10/31 08:49:08;;;;;;;0.25;0.25;;;;;;;;;;6296892;22;20071;-86
2023/10/31 08:52:01;;;;;;;0.30;0.30;;;;;;;;;;6326175;22;20023;-85
2023/10/31 08:54:55;;;;;;;0.20;0.20;;;;;;;;;;6307517;22;20100;-86
2023/10/31 09:00:56;;;;;;;0.25;0.25;;;;;;;;;;6333096;22;20019;-86
2023/10/31 09:03:23;;;;;;;0.20;0.20;;;;;;;;;;6293253;22;20015;-86
2023/10/31 09:05:56;;;;;;;0.20;0.20;;;;;;;;;;6331603;22;20026;-87
2023/10/31 09:08:28;;;;;;;0.03;0.03;;;;;;;;;;6325110;22;20023;-86
2023/10/31 09:11:04;;;;;;;;;;;;;;;;;;6323253;22;20059;-86
2023/10/31 09:13:31;;;;;;;0.10;0.10;;;;;;;;;;6330080;22;19915;-87
2023/10/31 09:15:58;;;;;;;0.30;0.30;;;;;;;;;;6317992;22;20015;-85
2023/10/31 09:18:24;;;;;;;0.30;0.30;;;;;;;;;;6301970;22;20021;-86
2023/10/31 09:21:02;;;;;;;0.20;0.20;;;;;;;;;;6271643;22;20015;-86
2023/10/31 09:23:47;;;;;;;0.20;0.20;;;;;;;;;;6327318;22;20010;-87
2023/10/31 09:26:19;;;;;;;0.30;0.30;;;;;;;;;;6272731;22;20051;-84
2023/10/31 09:29:17;;;;;;;0.30;0.30;;;;;;;;;;6280319;22;20015;-83
2023/10/31 09:31:52;;;;;;;0.20;0.20;;;;;;;;;;6277136;22;20026;-84
2023/10/31 09:34:18;;;;;;;0.30;0.30;;;;;;;;;;6265077;22;20440;-86
2023/10/31 09:36:45;;;;;;;0.30;0.30;;;;;;;;;;6266280;22;20109;-86
2023/10/31 09:39:12;;;;;;;0.20;0.20;;;;;;;;;;6270573;22;20015;-84
2023/10/31 09:41:53;;;;;;;0.20;0.20;;;;;;;;;;6273718;22;20011;-85
2023/10/31 09:44:19;;;;;;;0.30;0.30;;;;;;;;;;6271272;22;20051;-85
2023/10/31 09:46:59;;;;;;;0.20;0.20;;;;;;;;;;6304736;22;20027;-83
2023/10/31 09:49:52;;;;;;;0.20;0.20;;;;;;;;;;6304331;22;20043;-85
2023/10/31 09:52:28;;;;;;;0.20;0.20;;;;;;;;;;6328976;22;20034;-85
2023/10/31 09:54:56;;;;;;;0.15;0.15;;;;;;;;;;6299628;22;20117;-83
2023/10/31 09:57:36;;;;;;;0.20;0.20;;;;;;;;;;6300243;22;20015;-84
2023/10/31 10:00:13;;;;;;;0.30;0.30;;;;;;;;;;6282083;22;20022;-86
2023/10/31 10:03:15;;;;;;;0.20;0.20;;;;;;;;;;6282720;22;20015;-86
2023/10/31 10:05:48;;;;;;;0.30;0.30;;;;;;;;;;6281948;22;20019;-85
2023/10/31 10:08:40;;;;;;;0.38;0.38;;;;;;;;;;6272857;22;20011;-88
2023/10/31 10:11:07;;;;;;;0.30;0.30;;;;;;;;;;6294093;22;20007;-88
2023/10/31 10:13:33;;;;;;;0.20;0.20;;;;;;;;;;6278449;22;20026;-85
2023/10/31 10:15:59;;;;;;;0.20;0.20;;;;;;;;;;6276542;22;20026;-84
2023/10/31 10:18:32;;;;;;;0.20;0.20;;;;;;;;;;6271986;22;20030;-84
2023/10/31 10:21:05;;;;;;;0.30;0.30;;;;;;;;;;6328079;22;20111;-86
2023/10/31 10:23:33;;;;;;;0.20;0.20;;;;;;;;;;6280644;22;20018;-85
2023/10/31 10:26:07;;;;;;;0.20;0.20;;;;;;;;;;6269918;22;20019;-85
2023/10/31 10:28:40;;;;;;;0.13;0.13;;;;;;;;;;6271469;22;20015;-85
2023/10/31 10:31:14;;;;;;;0.20;0.20;;;;;;;;;;6279558;22;20015;-84
2023/10/31 10:33:54;;;;;;;0.22;0.22;;;;;;;;;;6306679;22;20026;-84
2023/10/31 10:36:47;;;;;;;0.30;0.30;;;;;;;;;;6269950;22;20022;-87
2023/10/31 10:39:21;;;;;;;0.30;0.30;;;;;;;;;;6317946;22;20505;-87
2023/10/31 10:41:48;;;;;;;0.30;0.30;;;;;;;;;;6267478;22;20019;-86
2023/10/31 10:44:33;;;;;;;0.30;0.30;;;;;;;;;;6268276;22;20015;-87
2023/10/31 10:47:12;;;;;;;0.30;0.30;;;;;;;;;;6248873;22;20142;-86
2023/10/31 10:49:46;;;;;;;0.30;0.30;;;;;;;;;;6301859;22;20026;-87
2023/10/31 10:52:29;;;;;;;0.30;0.30;;;;;;;;;;6308346;22;20041;-87
2023/10/31 10:55:42;;;;;;;0.20;0.20;;;;;;;;;;6284717;22;20053;-87
2023/10/31 10:58:27;;;;;;;0.30;0.30;;;;;;;;;;6305362;22;20023;-86
2023/10/31 11:00:54;;;;;;;0.20;0.20;;;;;;;;;;6268289;22;20076;-87
2023/10/31 11:03:24;;;;;;;0.30;0.30;;;;;;;;;;6279359;22;20027;-85
2023/10/31 11:06:14;;;;;;;0.20;0.20;;;;;;;;;;6332198;22;19995;-86
2023/10/31 11:08:41;;;;;;;0.30;0.30;;;;;;;;;;6246128;22;20072;-86
2023/10/31 11:11:23;;;;;;;0.38;0.38;;;;;;;;;;6279865;22;20019;-86
2023/10/31 11:14:02;;;;;;;0.20;0.20;;;;;;;;;;6307212;22;20007;-86
2023/10/31 11:16:48;;;;;;;0.30;0.30;;;;;;;;;;6328774;22;20016;-87
2023/10/31 11:19:15;;;;;;;0.32;0.32;;;;;;;;;;6251077;22;20017;-87
2023/10/31 11:21:53;;;;;;;0.32;0.32;;;;;;;;;;6329438;22;20025;-87
2023/10/31 11:24:23;;;;;;;0.30;0.30;;;;;;;;;;6331551;22;20089;-86
2023/10/31 11:27:01;;;;;;;0.20;0.20;;;;;;;;;;6332424;22;20038;-86
2023/10/31 11:29:33;;;;;;;0.22;0.22;;;;;;;;;;6281930;22;20007;-87
2023/10/31 11:32:17;;;;;;;0.25;0.25;;;;;;;;;;6304084;22;20039;-88
2023/10/31 11:35:04;;;;;;;0.20;0.20;;;;;;;;;;6333483;22;20049;-86
2023/10/31 11:37:51;;;;;;;0.43;0.43;;;;;;;;;;6335389;22;20029;-85
2023/10/31 11:40:31;;;;;;;0.20;0.20;;;;;;;;;;6323484;22;20055;-86
2023/10/31 11:43:03;;;;;;;0.20;0.20;;;;;;;;;;6334483;22;20038;-87
2023/10/31 11:45:49;;;;;;;0.40;0.40;;;;;;;;;;6298893;22;20019;-87
2023/10/31 11:48:48;;;;;;;0.20;0.20;;;;;;;;;;6333341;22;20000;-87
2023/10/31 11:51:22;;;;;;;0.30;0.30;;;;;;;;;;6302656;22;20012;-85
2023/10/31 11:53:58;;;;;;;0.20;0.20;;;;;;;;;;6326513;22;20017;-86
2023/10/31 11:56:25;;;;;;;0.20;0.20;;;;;;;;;;6304041;22;20025;-86
2023/10/31 11:59:23;;;;;;;0.28;0.28;;;;;;;;;;6331787;22;20011;-87
2023/10/31 12:01:52;;;;;;;0.20;0.20;;;;;;;;;;6303489;22;20027;-87
2023/10/31 12:04:43;;;;;;;0.13;0.13;;;;;;;;;;6303913;22;20482;-86
2023/10/31 12:07:21;;;;;;;0.20;0.20;;;;;;;;;;6326539;22;20015;-89
2023/10/31 12:09:48;;;;;;;0.20;0.20;;;;;;;;;;6328130;22;20011;-86
2023/10/31 12:12:14;;;;;;;0.20;0.20;;;;;;;;;;6304366;22;20046;-85
2023/10/31 12:14:41;;;;;;;0.20;0.20;;;;;;;;;;6298971;22;20015;-84
2023/10/31 12:17:07;;;;;;;0.20;0.20;;;;;;;;;;6292964;22;20041;-86
2023/10/31 12:19:37;;;;;;;0.20;0.20;;;;;;;;;;6297300;22;20043;-87
2023/10/31 12:22:12;;;;;;;0.30;0.30;;;;;;;;;;6267538;22;19995;-86
2023/10/31 12:24:38;;;;;;;0.32;0.32;;;;;;;;;;6248178;22;20026;-85
2023/10/31 12:27:04;;;;;;;0.20;0.20;;;;;;;;;;6280595;22;20019;-84
2023/10/31 12:29:32;;;;;;;0.30;0.30;;;;;;;;;;6304336;22;20022;-84
2023/10/31 12:32:20;;;;;;;0.20;0.20;;;;;;;;;;6267456;22;20003;-85
2023/10/31 12:34:49;;;;;;;0.20;0.20;;;;;;;;;;6291170;22;20576;-86
2023/10/31 12:37:15;;;;;;;0.10;0.10;;;;;;;;;;6304918;22;20027;-87
2023/10/31 12:39:48;;;;;;;0.25;0.25;;;;;;;;;;6269960;22;20454;-84
2023/10/31 12:42:32;;;;;;;0.20;0.20;;;;;;;;;;6332604;22;20021;-86
2023/10/31 12:44:59;;;;;;;0.20;0.20;;;;;;;;;;6267860;22;20031;-85
2023/10/31 12:47:25;;;;;;;0.20;0.20;;;;;;;;;;6273283;22;20026;-86
2023/10/31 12:50:12;;;;;;;0.13;0.13;;;;;;;;;;6279860;22;20007;-86
2023/10/31 12:52:51;;;;;;;0.20;0.20;;;;;;;;;;6279225;22;20067;-84
2023/10/31 12:55:30;;;;;;;0.20;0.20;;;;;;;;;;6280260;22;20011;-85
2023/10/31 12:58:20;;;;;;;0.30;0.30;;;;;;;;;;6301643;22;20083;-88
2023/10/31 13:00:46;;;;;;;0.20;0.20;;;;;;;;;;6267949;22;20015;-86
2023/10/31 13:03:27;;;;;;;0.10;0.10;;;;;;;;;;6301963;22;20033;-85
2023/10/31 13:05:55;;;;;;;0.10;0.10;;;;;;;;;;6261465;22;20058;-87
2023/10/31 13:18:47;;;;;;;0.20;0.20;;;;;;;;;;6320205;22;20027;-89
2023/10/31 13:24:31;;;;;;;0.20;0.20;;;;;;;;;;6328944;22;20076;-92
2023/10/31 13:27:15;;;;;;;0.30;0.30;;;;;;;;;;6277845;22;20030;-93
2023/10/31 13:29:49;;;;;;;0.20;0.20;;;;;;;;;;6280296;22;20023;-89
2023/10/31 13:32:21;;;;;;;0.38;0.38;;;;;;;;;;6303025;22;20025;-92
2023/10/31 13:34:51;;;;;;;0.20;0.20;;;;;;;;;;6306162;22;20027;-93
2023/10/31 13:42:59;;;;;;;0.30;0.30;;;;;;;;;;6346876;22;20030;-91
2023/10/31 13:45:34;;;;;;;0.30;0.30;;;;;;;;;;6308032;22;20069;-93
2023/10/31 13:48:00;;;;;;;0.20;0.20;;;;;;;;;;6275653;22;20054;-95
2023/10/31 14:06:41;;;;;;;0.20;0.20;;;;;;;;;;6289291;22;20049;-88
2023/10/31 14:09:11;;;;;;;0.28;0.28;;;;;;;;;;6252707;22;20023;-92
2023/10/31 14:11:37;;;;;;;0.20;0.20;;;;;;;;;;6279485;22;20020;-91
2023/10/31 14:16:49;;;;;;;0.20;0.20;;;;;;;;;;6329266;22;20006;-85
2023/10/31 14:19:22;;;;;;;0.20;0.20;;;;;;;;;;6334446;22;20045;-86
2023/10/31 14:21:52;;;;;;;0.30;0.30;;;;;;;;;;6332291;22;20023;-87
2023/10/31 14:24:37;;;;;;;0.20;0.20;;;;;;;;;;6250639;22;20028;-86
2023/10/31 14:27:15;;;;;;;0.20;0.20;;;;;;;;;;6298540;22;20029;-86
2023/10/31 14:29:52;;;;;;;0.10;0.10;;;;;;;;;;6287412;22;20004;-86
2023/10/31 14:32:19;;;;;;;0.17;0.17;;;;;;;;;;6274933;22;20073;-86
2023/10/31 14:34:47;;;;;;;0.20;0.20;;;;;;;;;;6270273;22;20042;-86
2023/10/31 14:37:13;;;;;;;0.20;0.20;;;;;;;;;;6274099;22;20019;-84
2023/10/31 14:39:50;;;;;;;0.20;0.20;;;;;;;;;;6255277;22;20011;-86
2023/10/31 14:42:25;;;;;;;0.20;0.20;;;;;;;;;;6281393;22;20046;-85
2023/10/31 14:45:15;;;;;;;;;;;;;;;;;;;;;
2023/10/31 14:47:52;;;;;;;0.30;0.30;;;;;;;;;;6302613;22;20173;-88
2023/10/31 14:50:40;;;;;;;0.20;0.20;;;;;;;;;;6282898;22;20022;-88
2023/10/31 14:53:25;;;;;;;;;;;;;;;;;;6307843;22;20062;-85
2023/10/31 14:56:17;;;;;;;0.10;0.10;;;;;;;;;;6282591;22;19941;-88
2023/10/31 14:58:53;;;;;;;0.30;0.30;;;;;;;;;;6309223;22;20030;-87
2023/10/31 15:01:22;;;;;;;0.10;0.10;;;;;;;;;;6305620;22;20018;-87
2023/10/31 15:03:48;;;;;;;0.22;0.22;;;;;;;;;;6280648;22;20015;-87
2023/10/31 15:06:25;;;;;;;0.20;0.20;;;;;;;;;;6306637;22;19999;-87
2023/10/31 15:22:35;;;;;;;0.10;0.10;;;;;;;;;;6329938;22;20087;-85
2023/10/31 15:25:02;;;;;;;0.20;0.20;;;;;;;;;;6301920;22;20138;-84
2023/10/31 15:27:43;;;;;;;0.20;0.20;;;;;;;;;;6302487;22;20025;-87
2023/10/31 15:30:23;;;;;;;0.20;0.20;;;;;;;;;;6276049;22;20019;-87
2023/10/31 15:32:52;;;;;;;0.20;0.20;;;;;;;;;;6276525;22;20019;-87
2023/10/31 15:35:18;;;;;;;0.30;0.30;;;;;;;;;;6271417;22;20018;-86
2023/10/31 15:37:45;;;;;;;0.30;0.30;;;;;;;;;;6278638;22;20057;-86
2023/10/31 15:40:17;;;;;;;0.20;0.20;;;;;;;;;;6306220;22;20026;-87
2023/10/31 15:43:03;;;;;;;0.30;0.30;;;;;;;;;;6323634;22;20141;-87
2023/10/31 15:45:32;;;;;;;0.20;0.20;;;;;;;;;;6275928;22;20067;-88
2023/10/31 15:47:58;;;;;;;0.20;0.20;;;;;;;;;;6273146;22;20015;-85
2023/10/31 15:50:26;;;;;;;0.30;0.30;;;;;;;;;;6278249;22;20023;-86
2023/10/31 15:52:54;;;;;;;0.30;0.30;;;;;;;;;;6273269;22;20045;-86
2023/10/31 15:55:23;;;;;;;0.15;0.15;;;;;;;;;;6304316;22;20071;-86
2023/10/31 15:57:57;;;;;;;0.20;0.20;;;;;;;;;;6299430;22;20019;-86
2023/10/31 16:00:25;;;;;;;0.20;0.20;;;;;;;;;;6299416;22;19999;-87
2023/10/31 16:02:57;;;;;;;0.20;0.20;;;;;;;;;;6301113;22;20046;-87
2023/10/31 16:05:24;;;;;;;0.20;0.20;;;;;;;;;;6302340;22;20011;-86
2023/10/31 16:07:54;;;;;;;0.30;0.30;;;;;;;;;;6305117;22;20015;-88
2023/10/31 16:10:22;;;;;;;0.20;0.20;;;;;;;;;;6275575;22;20015;-88
2023/10/31 16:12:55;;;;;;;0.30;0.30;;;;;;;;;;6302369;22;20039;-87
2023/10/31 16:15:36;;;;;;;0.20;0.20;;;;;;;;;;6302538;22;20015;-86
2023/10/31 16:18:03;;;;;;;0.20;0.20;;;;;;;;;;6262065;22;20030;-87
2023/10/31 16:20:31;;;;;;;0.30;0.30;;;;;;;;;;6297111;22;20015;-87
2023/10/31 16:23:06;;;;;;;0.20;0.20;;;;;;;;;;6304503;22;20011;-86
2023/10/31 16:25:39;;;;;;;0.20;0.20;;;;;;;;;;6279240;22;20011;-87
2023/10/31 16:28:08;;;;;;;0.30;0.30;;;;;;;;;;6271065;22;20019;-85
2023/10/31 16:30:34;;;;;;;0.20;0.20;;;;;;;;;;6291241;22;20327;-88
2023/10/31 16:33:01;;;;;;;0.30;0.30;;;;;;;;;;6275080;22;20019;-86
2023/10/31 16:35:34;;;;;;;0.28;0.28;;;;;;;;;;6277235;22;20026;-85
2023/10/31 16:38:05;;;;;;;0.20;0.20;;;;;;;;;;6307582;22;19999;-87
2023/10/31 16:40:42;;;;;;;0.20;0.20;;;;;;;;;;6331425;22;19999;-85
2023/10/31 16:43:10;;;;;;;0.10;0.10;;;;;;;;;;6279848;22;20034;-87
2023/10/31 16:45:45;;;;;;;0.30;0.30;;;;;;;;;;6272083;22;20007;-86
2023/10/31 16:48:11;;;;;;;0.30;0.30;;;;;;;;;;6261842;22;20015;-88
2023/10/31 16:50:58;;;;;;;0.20;0.20;;;;;;;;;;6279994;22;20019;-86
2023/10/31 16:53:31;;;;;;;0.20;0.20;;;;;;;;;;6280248;22;20027;-87
2023/10/31 16:56:00;;;;;;;0.30;0.30;;;;;;;;;;6305102;22;20277;-86
2023/10/31 16:58:26;;;;;;;0.20;0.20;;;;;;;;;;6273894;22;20019;-88
2023/10/31 17:00:52;;;;;;;0.30;0.30;;;;;;;;;;6296116;22;20038;-87
2023/10/31 17:03:24;;;;;;;0.30;0.30;;;;;;;;;;6271787;22;20071;-86
2023/10/31 17:05:55;;;;;;;0.30;0.30;;;;;;;;;;6302856;22;20019;-87
2023/10/31 17:08:22;;;;;;;0.20;0.20;;;;;;;;;;6293576;22;20051;-87
2023/10/31 17:10:54;;;;;;;0.20;0.20;;;;;;;;;;6267675;22;20098;-86
2023/10/31 17:13:31;;;;;;;0.30;0.30;;;;;;;;;;6306539;22;20003;-87
2023/10/31 17:16:00;;;;;;;0.22;0.22;;;;;;;;;;6299851;22;20019;-86
2023/10/31 17:18:29;;;;;;;0.20;0.20;;;;;;;;;;6269064;22;20022;-87
2023/10/31 17:20:59;;;;;;;0.28;0.28;;;;;;;;;;6322093;22;20023;-86
2023/10/31 17:23:26;;;;;;;0.20;0.20;;;;;;;;;;6279784;22;20050;-89
2023/10/31 17:25:54;;;;;;;0.20;0.20;;;;;;;;;;6307716;22;20030;-88
2023/10/31 17:28:21;;;;;;;0.20;0.20;;;;;;;;;;6280796;22;20019;-87
2023/10/31 17:30:51;;;;;;;0.20;0.20;;;;;;;;;;6279741;22;20377;-88
2023/10/31 17:33:32;;;;;;;0.20;0.20;;;;;;;;;;6282494;22;20021;-87
2023/10/31 17:36:03;;;;;;;0.30;0.30;;;;;;;;;;6279014;22;20019;-89
2023/10/31 17:38:29;;;;;;;0.30;0.30;;;;;;;;;;6279618;22;20041;-89